• Join FlightAware (Why Join?)
  • Login
  • US Flag 
03:15AM EDT


 

Airport Tracker/Info


-or-


 

Live Flight TrackerFlight Track Log ✈ N1KT ✈ 23-Jul-2013 ✈ KHLG - KHSB

Flight Track Log - Related Links

Times and Time Zones

All times are in EDT time to prevent confusion due to time zone crossing. See the N1KT flight status page for this flight to view local times or setup timezone preferences in your user account.

Time Position Orientation Groundspeed Altitude Reporting Facility
EDT Latitude Longitude Course Direction KTS MPH feet Rate Location/Type
07:31AM 40.0983 -80.7214 247° West 208 239 4,300  Level Cleveland Center
07:32AM 40.0442 -80.7864 223° Southwest 242 278 7,000 3,300 Climbing Cleveland Center
07:33AM 40.0000 -80.8703 236° Southwest 270 311 10,900 3,300 Climbing Cleveland Center
07:34AM 39.9561 -80.9569 237° Southwest 287 330 13,700 2,580 Climbing Cleveland Center
07:35AM 39.9056 -81.0486 234° Southwest 297 342 16,100 2,400 Climbing Cleveland Center
07:36AM 39.8933 -81.2036 247° West  Level FlightAware Approximate
07:36AM 39.8572 -81.1428 236° Southwest 311 358 18,600  Level Cleveland Center
07:38AM 39.7969 -81.3006 244° Southwest 318 366 22,300 2,040 Climbing Indianapolis Center
07:39AM 39.7706 -81.4092 252° West 317 365 23,800 780 Climbing Indianapolis Center
07:40AM 39.7433 -81.5289 254° West 350 403 24,000 960 Climbing Indianapolis Center
07:41AM 39.7050 -81.6853 252° West 385 443 25,800 1,620 Climbing Indianapolis Center
07:42AM 39.6800 -81.7942 253° West 375 432 27,400 1,560 Climbing Indianapolis Center
07:43AM 39.6447 -81.9458 253° West 369 425 29,000 1,260 Climbing Indianapolis Center
07:44AM 39.6133 -82.0747 252° West 374 430 30,000 480 Climbing Indianapolis Center
07:45AM 39.5803 -82.2100 252° West 391 450 30,000  Level Indianapolis Center
07:46AM 39.5447 -82.3553 252° West 416 479 30,000  Level Indianapolis Center
07:47AM 39.5094 -82.5019 253° West 421 484 30,000  Level Indianapolis Center
07:48AM 39.4736 -82.6467 252° West 419 482 30,000  Level Indianapolis Center
07:49AM 39.4372 -82.7919 252° West 420 483 30,000  Level Indianapolis Center
07:50AM 39.4017 -82.9356 252° West 417 480 30,000  Level Indianapolis Center
07:51AM 39.3653 -83.0814 252° West 420 483 30,000  Level Indianapolis Center
07:52AM 39.3281 -83.2269 252° West 421 484 30,000  Level Indianapolis Center
07:53AM 39.2911 -83.3725 252° West 420 483 30,000  Level Indianapolis Center
07:54AM 39.2542 -83.5167 252° West 419 482 30,000  Level Indianapolis Center
07:55AM 39.2181 -83.6586 252° West 413 475 30,000  Level Indianapolis Center
07:56AM 39.1819 -83.7994 252° West 411 473 30,000  Level Indianapolis Center
07:57AM 39.1397 -83.9606 251° West 403 464 30,000  Level Indianapolis Center
07:58AM 39.1033 -84.0997 251° West 406 467 30,000  Level Indianapolis Center
07:59AM 39.0675 -84.2367 251° West 401 461 30,000  Level Indianapolis Center
08:00AM 39.0344 -84.3628 251° West 401 461 30,000  Level Indianapolis Center
08:01AM 38.9922 -84.5208 251° West 402 463 30,000  Level Indianapolis Center
08:02AM 38.9625 -84.6308 251° West 401 461 30,000  Level Indianapolis Center
08:03AM 38.9189 -84.7939 251° West 403 464 30,000  Level Indianapolis Center
08:04AM 38.8836 -84.9275 251° West 397 457 30,000  Level Indianapolis Center
08:05AM 38.8464 -85.0625 251° West 401 461 30,000  Level Indianapolis Center
08:06AM 38.8092 -85.1978 251° West 404 465 30,000  Level Indianapolis Center
08:07AM 38.7725 -85.3336 251° West 405 466 30,000  Level Indianapolis Center
08:08AM 38.7356 -85.4689 251° West 404 465 30,000  Level Indianapolis Center
08:09AM 38.6981 -85.6039 250° West 404 465 30,000  Level Indianapolis Center
08:10AM 38.6600 -85.7394 250° West 405 466 30,000  Level Indianapolis Center
08:11AM 38.6153 -85.9008 251° West 405 466 30,000  Level Indianapolis Center
08:12AM 38.5758 -86.0394 250° West 410 472 30,000  Level Indianapolis Center
08:13AM 38.5364 -86.1775 250° West 412 474 30,000 -480 Level Indianapolis Center
08:14AM 38.4964 -86.3156 250° West 413 475 29,100 -1,380 Descending Indianapolis Center
08:15AM 38.4578 -86.4531 250° West 411 473 27,200 -1,860 Descending Indianapolis Center
08:16AM 38.4186 -86.5886 250° West 407 468 25,300 -1,860 Descending Indianapolis Center
08:17AM 38.3800 -86.7217 250° West 399 459 23,400 -1,860 Descending Indianapolis Center
08:19AM 38.3422 -86.8503 250° West 389 448 21,500 -1,860 Descending Indianapolis Center
08:20AM 38.3050 -86.9781 250° West 383 441 19,600 -1,860 Descending Indianapolis Center
08:21AM 38.2642 -87.1175 250° West 367 422 17,800 -1,560 Descending Indianapolis Center
08:22AM 38.2322 -87.2264 250° West 357 411 16,400 -1,440 Descending Indianapolis Center
08:23AM 38.1972 -87.3428 249° West 351 404 14,900 -1,500 Descending Indianapolis Center
08:24AM 38.1628 -87.4592 249° West 351 404 13,400 -1,560 Descending Indianapolis Center
08:25AM 38.1231 -87.5914 249° West 335 386 11,700 -1,560 Descending Indianapolis Center
08:26AM 38.0911 -87.6975 249° West 322 371 10,200 -1,500 Descending Indianapolis Center
08:27AM 38.0614 -87.7975 249° West 306 352 8,700 -1,440 Descending Indianapolis Center
08:28AM 38.0331 -87.8914 249° West 290 334 7,300 -1,320 Descending Indianapolis Center
08:29AM 38.0047 -87.9819 248° West 281 323 6,000 -660 Descending Indianapolis Center
08:30AM 37.9781 -88.0711 249° West 275 316 6,000 -480 Level Indianapolis Center
08:31AM 37.9519 -88.1592 249° West 271 312 5,100 -960 Descending Indianapolis Center
08:32AM 37.9206 -88.2581 248° West 261 300 4,000 -1,020 Descending Kansas City Center